createdAt,value
2023-01-03T00:01:37.533Z,1.23
2023-01-03T00:04:06.536Z,1.00
2023-01-03T00:06:38.612Z,1.20
2023-01-03T00:09:10.346Z,1.10
2023-01-03T00:11:58.009Z,0.93
2023-01-03T00:14:28.034Z,1.20
2023-01-03T00:16:58.743Z,1.07
2023-01-03T00:19:30.269Z,1.00
2023-01-03T00:21:59.797Z,1.47
2023-01-03T00:24:28.027Z,1.20
2023-01-03T00:26:56.176Z,1.00
2023-01-03T00:29:24.357Z,1.53
2023-01-03T00:31:52.526Z,1.47
2023-01-03T00:34:20.740Z,1.13
2023-01-03T00:36:48.884Z,1.30
2023-01-03T00:39:18.504Z,1.10
2023-01-03T00:41:46.738Z,1.20
2023-01-03T00:44:14.906Z,1.00
2023-01-03T00:46:43.275Z,1.70
2023-01-03T00:49:12.061Z,1.10
2023-01-03T00:51:41.924Z,1.13
2023-01-03T00:54:12.115Z,1.40
2023-01-03T00:56:43.587Z,1.00
2023-01-03T00:59:12.552Z,1.43
2023-01-03T01:01:47.236Z,1.03
2023-01-03T01:04:17.949Z,1.23
2023-01-03T01:06:48.365Z,1.30
2023-01-03T01:09:19.036Z,1.60
2023-01-03T01:11:48.655Z,1.47
2023-01-03T01:14:20.960Z,1.23
2023-01-03T01:16:52.200Z,1.93
2023-01-03T01:19:22.293Z,1.87
2023-01-03T01:21:51.059Z,1.60
2023-01-03T01:24:19.773Z,1.40
2023-01-03T01:26:49.778Z,1.30
2023-01-03T01:29:18.608Z,1.47
2023-01-03T01:31:48.183Z,1.07
2023-01-03T01:34:17.288Z,1.60
2023-01-03T01:36:46.972Z,1.07
2023-01-03T01:39:18.060Z,1.00
2023-01-03T01:42:04.965Z,0.90
2023-01-03T01:44:54.761Z,1.03
2023-01-03T01:47:32.675Z,0.90
2023-01-03T01:50:08.313Z,0.80
2023-01-03T01:52:39.742Z,0.90
2023-01-03T01:55:13.072Z,0.90
2023-01-03T01:57:42.677Z,0.80
2023-01-03T02:00:13.696Z,0.77
2023-01-03T02:02:49.251Z,0.83
2023-01-03T02:05:20.895Z,0.70
2023-01-03T02:07:50.632Z,0.80
2023-01-03T02:10:21.889Z,0.77
2023-01-03T02:13:10.123Z,0.90
2023-01-03T02:16:04.545Z,0.70
2023-01-03T02:18:46.767Z,1.00
2023-01-03T02:21:43.993Z,0.70
2023-01-03T02:24:41.348Z,0.70
2023-01-03T02:27:31.142Z,0.70
2023-01-03T02:30:27.783Z,0.90
2023-01-03T02:33:04.988Z,0.70
2023-01-03T02:35:38.736Z,0.80
2023-01-03T02:38:13.946Z,0.90
2023-01-03T02:40:46.944Z,0.70
2023-01-03T02:43:20.865Z,0.70
2023-01-03T02:46:02.294Z,0.60
2023-01-03T02:48:38.922Z,0.73
2023-01-03T02:51:15.206Z,0.70
2023-01-03T02:53:48.028Z,1.50
2023-01-03T02:56:20.764Z,0.80
2023-01-03T02:58:55.128Z,1.13
2023-01-03T03:01:26.433Z,0.87
2023-01-03T03:03:55.531Z,1.07
2023-01-03T03:06:30.593Z,0.80
2023-01-03T03:08:59.398Z,1.10
2023-01-03T03:12:02.636Z,0.83
2023-01-03T03:14:36.196Z,0.80
2023-01-03T03:17:09.992Z,1.00
2023-01-03T03:19:55.910Z,1.03
2023-01-03T03:22:49.131Z,1.00
2023-01-03T03:25:23.303Z,1.00
2023-01-03T03:28:13.780Z,0.80
2023-01-03T03:30:45.482Z,1.00
2023-01-03T03:33:16.638Z,1.00
2023-01-03T03:35:48.396Z,1.10
2023-01-03T03:38:22.114Z,0.90
2023-01-03T03:41:17.862Z,1.00
2023-01-03T03:44:22.532Z,1.57
2023-01-03T03:47:04.307Z,1.20
2023-01-03T03:49:40.642Z,0.90
2023-01-03T03:52:14.629Z,1.07
2023-01-03T03:54:47.809Z,1.30
2023-01-03T03:57:20.230Z,1.07
2023-01-03T03:59:53.661Z,0.90
2023-01-03T04:02:23.617Z,0.87
2023-01-03T04:04:58.075Z,0.97
2023-01-03T04:07:26.431Z,1.10
2023-01-03T04:09:54.799Z,1.20
2023-01-03T04:12:22.990Z,1.00
2023-01-03T04:14:51.141Z,0.97
2023-01-03T04:17:19.320Z,1.00
2023-01-03T04:19:47.491Z,1.10
2023-01-03T04:22:17.021Z,0.83
2023-01-03T04:24:45.164Z,0.83
2023-01-03T04:27:13.380Z,1.23
2023-01-03T04:29:41.577Z,0.90
2023-01-03T04:32:10.159Z,0.90
2023-01-03T04:34:38.376Z,1.00
2023-01-03T04:37:06.548Z,1.00
2023-01-03T04:39:36.111Z,1.00
2023-01-03T04:42:26.643Z,1.10
2023-01-03T04:44:53.958Z,1.10
2023-01-03T04:47:22.147Z,1.10
2023-01-03T04:49:50.301Z,0.90
2023-01-03T04:52:18.697Z,1.37
2023-01-03T04:54:48.216Z,1.00
2023-01-03T04:57:16.411Z,1.97
2023-01-03T04:59:44.569Z,0.90
2023-01-03T05:02:12.845Z,1.10
2023-01-03T05:04:41.176Z,0.90
2023-01-03T05:07:09.359Z,1.30
2023-01-03T05:09:37.640Z,1.47
2023-01-03T05:12:07.496Z,1.17
2023-01-03T05:14:35.770Z,1.37
2023-01-03T05:17:04.230Z,2.30
2023-01-03T05:19:32.530Z,1.20
2023-01-03T05:22:18.431Z,1.20
2023-01-03T05:25:04.332Z,1.00
2023-01-03T05:27:34.073Z,1.20
2023-01-03T05:30:02.565Z,1.40
2023-01-03T05:32:31.332Z,1.30
2023-01-03T05:34:59.466Z,1.53
2023-01-03T05:37:27.625Z,1.73
2023-01-03T05:39:55.772Z,1.30
2023-01-03T05:42:23.930Z,1.33
2023-01-03T05:44:53.408Z,1.27
2023-01-03T05:47:21.626Z,1.33
2023-01-03T05:49:49.771Z,1.40
2023-01-03T05:52:18.040Z,1.10
2023-01-03T05:54:46.181Z,0.90
2023-01-03T05:57:14.367Z,1.60
2023-01-03T05:59:42.854Z,1.17
2023-01-03T06:02:12.520Z,1.20
2023-01-03T06:04:40.900Z,1.30
2023-01-03T06:07:09.134Z,1.20
2023-01-03T06:09:37.283Z,1.30
2023-01-03T06:12:05.815Z,2.27
2023-01-03T06:14:33.961Z,1.43
2023-01-03T06:17:19.490Z,2.60
2023-01-03T06:19:49.036Z,1.70
2023-01-03T06:22:17.165Z,1.90
2023-01-03T06:24:45.292Z,2.80
2023-01-03T06:27:13.483Z,2.13
2023-01-03T06:29:42.007Z,2.10
2023-01-03T06:32:10.271Z,1.80
2023-01-03T06:34:38.798Z,2.53
2023-01-03T06:37:08.619Z,1.47
2023-01-03T06:39:36.946Z,2.03
2023-01-03T06:42:19.355Z,1.10
2023-01-03T06:45:08.297Z,1.20
2023-01-03T06:47:55.438Z,1.17
2023-01-03T06:50:41.968Z,1.30
2023-01-03T06:53:15.084Z,1.20
2023-01-03T06:55:44.499Z,2.40
2023-01-03T06:58:13.798Z,1.50
2023-01-03T07:00:44.346Z,1.77
2023-01-03T07:03:12.535Z,1.47
2023-01-03T07:05:43.395Z,1.30
2023-01-03T07:08:12.929Z,1.60
2023-01-03T07:10:42.578Z,1.63
2023-01-03T07:13:28.177Z,1.50
2023-01-03T07:15:56.378Z,2.00
2023-01-03T07:18:26.203Z,2.47
2023-01-03T07:20:54.661Z,1.77
2023-01-03T07:23:24.140Z,1.70
2023-01-03T07:25:55.686Z,2.17
2023-01-03T07:28:24.722Z,1.90
2023-01-03T07:30:53.108Z,1.40
2023-01-03T07:33:21.335Z,1.40
2023-01-03T07:35:49.474Z,2.00
2023-01-03T07:38:17.681Z,2.87
2023-01-03T07:40:47.168Z,1.90
2023-01-03T07:43:32.792Z,1.53
2023-01-03T07:46:01.048Z,1.57
2023-01-03T07:48:29.248Z,1.83
2023-01-03T07:50:58.342Z,1.57
2023-01-03T07:53:27.145Z,1.73
2023-01-03T07:56:07.695Z,2.17
2023-01-03T07:58:39.837Z,2.57
2023-01-03T08:01:09.939Z,2.33
2023-01-03T08:03:39.167Z,2.00
2023-01-03T08:06:10.477Z,2.07
2023-01-03T08:08:39.255Z,2.40
2023-01-03T08:11:29.487Z,2.77
2023-01-03T08:13:57.635Z,2.60
2023-01-03T08:16:25.886Z,3.67
2023-01-03T08:18:54.129Z,2.97
2023-01-03T08:21:22.249Z,2.93
2023-01-03T08:23:50.572Z,2.87
2023-01-03T08:26:20.918Z,2.20
2023-01-03T08:28:49.039Z,1.90
2023-01-03T08:31:19.839Z,2.20
2023-01-03T08:33:51.275Z,3.20
2023-01-03T08:36:20.425Z,2.80
2023-01-03T08:38:54.013Z,2.60
2023-01-03T08:41:27.277Z,2.20
2023-01-03T08:43:56.388Z,2.37
2023-01-03T08:46:24.641Z,2.73
2023-01-03T08:48:52.928Z,2.53
2023-01-03T08:51:21.082Z,2.40
2023-01-03T08:53:49.244Z,2.30
2023-01-03T08:56:19.728Z,2.57
2023-01-03T08:58:49.210Z,2.83
2023-01-03T09:01:17.671Z,2.83
2023-01-03T09:03:46.100Z,3.30
2023-01-03T09:06:14.323Z,2.80
2023-01-03T09:08:42.908Z,2.87
2023-01-03T09:11:11.777Z,2.33
2023-01-03T09:13:40.889Z,2.40
2023-01-03T09:16:12.560Z,2.60
2023-01-03T09:18:42.143Z,2.70
2023-01-03T09:21:10.350Z,2.00
2023-01-03T09:23:39.102Z,2.40
2023-01-03T09:26:08.066Z,2.90
2023-01-03T09:28:36.292Z,2.77
2023-01-03T09:31:05.957Z,2.90
2023-01-03T09:33:35.737Z,2.40
2023-01-03T09:36:04.017Z,2.37
2023-01-03T09:38:32.241Z,3.10
2023-01-03T09:41:05.955Z,2.70
2023-01-03T09:43:40.828Z,2.00
2023-01-03T09:46:17.530Z,2.50
2023-01-03T09:48:48.840Z,1.90
2023-01-03T09:51:38.688Z,2.70
2023-01-03T09:54:30.815Z,2.27
2023-01-03T09:57:16.694Z,2.80
2023-01-03T10:00:02.457Z,3.20
2023-01-03T10:03:14.218Z,4.67
2023-01-03T10:05:56.181Z,2.00
2023-01-03T10:08:39.262Z,2.33
2023-01-03T10:11:10.157Z,2.27
2023-01-03T10:14:10.412Z,2.13
2023-01-03T10:16:48.621Z,2.33
2023-01-03T10:19:46.814Z,2.33
2023-01-03T10:22:19.110Z,4.23
2023-01-03T10:24:51.588Z,1.93
2023-01-03T10:27:22.363Z,2.20
2023-01-03T10:29:54.910Z,2.40
2023-01-03T10:32:42.155Z,1.80
2023-01-03T10:35:19.567Z,2.30
2023-01-03T10:37:52.464Z,2.40
2023-01-03T10:40:20.889Z,2.60
2023-01-03T10:42:50.441Z,3.30
2023-01-03T10:45:20.752Z,2.10
2023-01-03T10:47:59.296Z,2.27
2023-01-03T10:50:29.661Z,1.80
2023-01-03T10:53:01.543Z,2.27
2023-01-03T10:55:29.779Z,2.30
2023-01-03T10:58:01.613Z,1.63
2023-01-03T11:00:33.111Z,2.17
2023-01-03T11:03:13.725Z,1.50
2023-01-03T11:05:45.031Z,1.03
2023-01-03T11:08:18.577Z,1.50
2023-01-03T11:10:56.185Z,1.60
2023-01-03T11:13:26.651Z,1.50
2023-01-03T11:15:55.590Z,2.33
2023-01-03T11:18:25.305Z,1.67
2023-01-03T11:21:01.104Z,1.60
2023-01-03T11:23:43.541Z,1.83
2023-01-03T11:26:19.788Z,2.23
2023-01-03T11:29:00.796Z,1.43
2023-01-03T11:31:43.276Z,1.70
2023-01-03T11:34:42.004Z,1.67
2023-01-03T11:37:28.157Z,1.90
2023-01-03T11:40:09.895Z,2.73
2023-01-03T11:42:46.846Z,2.37
2023-01-03T11:45:49.794Z,1.80
2023-01-03T11:48:35.195Z,1.70
2023-01-03T11:51:12.611Z,1.60
2023-01-03T11:53:55.883Z,1.90
2023-01-03T11:56:29.935Z,1.70
2023-01-03T11:59:27.472Z,2.50
2023-01-03T12:02:28.022Z,2.33
2023-01-03T12:05:08.714Z,2.23
2023-01-03T12:07:52.830Z,2.20
2023-01-03T12:10:26.584Z,2.07
2023-01-03T12:13:12.862Z,2.40
2023-01-03T12:15:48.510Z,1.97
2023-01-03T12:18:26.915Z,2.40
2023-01-03T12:20:59.150Z,2.57
2023-01-03T12:23:40.571Z,2.33
2023-01-03T12:26:11.164Z,2.77
2023-01-03T12:28:43.215Z,2.17
2023-01-03T12:31:26.236Z,2.10
2023-01-03T12:34:08.368Z,2.27
2023-01-03T12:36:42.138Z,2.70
2023-01-03T12:39:33.433Z,2.27
2023-01-03T12:42:07.493Z,2.20
2023-01-03T12:44:40.650Z,3.07
2023-01-03T12:47:19.159Z,2.30
2023-01-03T12:49:54.205Z,2.17
2023-01-03T12:52:26.467Z,3.17
2023-01-03T12:54:59.490Z,2.50
2023-01-03T12:57:52.724Z,2.17
2023-01-03T13:00:34.182Z,2.17
2023-01-03T13:03:07.883Z,2.27
2023-01-03T13:05:42.638Z,1.80
2023-01-03T13:08:20.149Z,1.40
2023-01-03T13:10:51.114Z,1.50
2023-01-03T13:13:21.540Z,1.40
2023-01-03T13:15:51.196Z,2.17
2023-01-03T13:18:32.523Z,1.73
2023-01-03T13:21:01.023Z,1.20
2023-01-03T13:23:32.587Z,2.60
2023-01-03T13:26:22.567Z,1.67
2023-01-03T13:28:51.476Z,1.37
2023-01-03T13:31:39.389Z,1.50
2023-01-03T13:34:31.915Z,1.83
2023-01-03T13:37:18.200Z,2.00
2023-01-03T13:39:58.389Z,2.30
2023-01-03T13:42:30.371Z,1.70
2023-01-03T13:45:31.826Z,1.80
2023-01-03T13:48:11.697Z,2.10
2023-01-03T13:50:39.864Z,2.03
2023-01-03T13:53:31.732Z,1.73
2023-01-03T13:56:01.907Z,1.53
2023-01-03T13:58:38.345Z,2.20
2023-01-03T14:01:17.584Z,2.50
2023-01-03T14:04:08.328Z,2.07
2023-01-03T14:07:01.114Z,1.60
2023-01-03T14:09:50.246Z,1.80
2023-01-03T14:13:05.126Z,1.63
2023-01-03T14:15:34.345Z,2.40
2023-01-03T14:18:12.567Z,1.90
2023-01-03T14:20:46.601Z,1.87
2023-01-03T14:23:57.669Z,2.23
2023-01-03T14:26:19.240Z,1.73
2023-01-03T14:28:52.659Z,2.00
2023-01-03T14:31:23.069Z,2.30
2023-01-03T14:33:55.612Z,2.37
2023-01-03T14:36:25.811Z,2.07
2023-01-03T14:38:56.058Z,2.93
2023-01-03T14:41:30.355Z,2.13
2023-01-03T14:44:03.487Z,4.60
2023-01-03T14:46:32.625Z,2.50
2023-01-03T14:49:04.105Z,2.30
2023-01-03T14:51:35.845Z,2.30
2023-01-03T14:54:05.075Z,2.27
2023-01-03T14:56:34.287Z,2.20
2023-01-03T14:59:03.938Z,2.60
2023-01-03T15:01:32.314Z,2.90
2023-01-03T15:04:01.552Z,2.17
2023-01-03T15:06:31.976Z,3.20
2023-01-03T15:09:13.627Z,4.23
2023-01-03T15:11:56.980Z,5.10
2023-01-03T15:14:27.321Z,4.77
2023-01-03T15:17:04.130Z,4.70
2023-01-03T15:19:34.877Z,5.40
2023-01-03T15:22:16.174Z,4.10
2023-01-03T15:24:48.956Z,7.37
2023-01-03T15:27:39.116Z,6.70
2023-01-03T15:30:17.925Z,5.50
2023-01-03T15:32:49.361Z,7.70
2023-01-03T15:35:22.530Z,6.83
2023-01-03T15:37:55.141Z,6.53
2023-01-03T15:40:24.899Z,5.50
2023-01-03T15:43:11.394Z,5.87
2023-01-03T15:45:42.123Z,5.63
2023-01-03T15:48:17.661Z,4.90
2023-01-03T15:50:49.156Z,5.10
2023-01-03T15:53:24.265Z,5.40
2023-01-03T15:55:58.061Z,6.90
2023-01-03T15:58:26.749Z,6.33
2023-01-03T16:00:55.819Z,7.10
2023-01-03T16:03:25.906Z,8.27
2023-01-03T16:05:54.351Z,5.67
2023-01-03T16:08:29.422Z,6.60
2023-01-03T16:11:01.212Z,6.03
2023-01-03T16:13:32.235Z,5.80
2023-01-03T16:16:00.811Z,6.20
2023-01-03T16:18:36.497Z,5.60
2023-01-03T16:21:05.968Z,4.33
2023-01-03T16:23:35.567Z,3.90
2023-01-03T16:26:05.271Z,5.60
2023-01-03T16:28:33.429Z,3.73
2023-01-03T16:31:03.844Z,4.40
2023-01-03T16:33:34.823Z,3.73
2023-01-03T16:36:03.481Z,3.53
2023-01-03T16:38:33.117Z,4.07
2023-01-03T16:41:01.796Z,3.90
2023-01-03T16:43:31.344Z,3.67
2023-01-03T16:46:00.605Z,2.97
2023-01-03T16:48:37.926Z,2.97
2023-01-03T16:51:06.476Z,3.60
2023-01-03T16:53:38.016Z,3.97
2023-01-03T16:56:10.587Z,2.93
2023-01-03T16:58:40.209Z,4.10
2023-01-03T17:01:08.526Z,3.47
2023-01-03T17:03:41.844Z,4.33
2023-01-03T17:06:24.784Z,3.33
2023-01-03T17:08:53.118Z,3.07
2023-01-03T17:11:21.297Z,3.47
2023-01-03T17:13:51.292Z,4.27
2023-01-03T17:16:22.808Z,4.10
2023-01-03T17:18:52.895Z,3.93
2023-01-03T17:21:25.905Z,2.83
2023-01-03T17:23:56.503Z,3.33
2023-01-03T17:26:25.382Z,3.57
2023-01-03T17:28:56.201Z,2.17
2023-01-03T17:31:26.352Z,3.67
2023-01-03T17:33:55.228Z,3.63
2023-01-03T17:36:26.242Z,2.50
2023-01-03T17:38:59.944Z,2.30
2023-01-03T17:41:28.731Z,2.57
2023-01-03T17:43:58.400Z,3.07
2023-01-03T17:46:46.354Z,2.97
2023-01-03T17:49:27.596Z,2.43
2023-01-03T17:51:59.307Z,2.70
2023-01-03T17:54:30.568Z,2.87
2023-01-03T17:57:00.012Z,2.90
2023-01-03T17:59:29.648Z,2.60
2023-01-03T18:01:58.607Z,2.90
2023-01-03T18:04:44.117Z,2.30
2023-01-03T18:07:20.791Z,2.50
2023-01-03T18:09:51.007Z,2.90
2023-01-03T18:12:20.726Z,2.77
2023-01-03T18:14:51.037Z,2.53
2023-01-03T18:17:27.737Z,2.63
2023-01-03T18:19:56.275Z,2.77
2023-01-03T18:22:25.640Z,2.90
2023-01-03T18:24:55.372Z,3.50
2023-01-03T18:27:26.680Z,3.50
2023-01-03T18:29:56.292Z,3.27
2023-01-03T18:32:28.121Z,3.20
2023-01-03T18:34:56.844Z,3.80
2023-01-03T18:37:30.664Z,3.90
2023-01-03T18:39:58.878Z,5.47
2023-01-03T18:42:44.919Z,4.33
2023-01-03T18:45:15.624Z,4.13
2023-01-03T18:47:44.137Z,5.10
2023-01-03T18:50:18.772Z,4.00
2023-01-03T18:52:48.391Z,5.03
2023-01-03T18:55:19.322Z,6.30
2023-01-03T18:57:48.690Z,5.37
2023-01-03T19:00:21.081Z,4.80
2023-01-03T19:02:49.845Z,5.30
2023-01-03T19:05:18.692Z,4.70
2023-01-03T19:07:49.459Z,5.00
2023-01-03T19:10:21.864Z,5.90
2023-01-03T19:12:52.009Z,5.70
2023-01-03T19:15:24.476Z,6.10
2023-01-03T19:17:53.287Z,6.80
2023-01-03T19:20:26.584Z,7.20
2023-01-03T19:22:56.314Z,4.67
2023-01-03T19:25:27.598Z,4.80
2023-01-03T19:27:59.264Z,6.40
2023-01-03T19:30:37.418Z,5.73
2023-01-03T19:33:07.394Z,5.70
2023-01-03T19:35:35.571Z,4.47
2023-01-03T19:38:03.907Z,4.60
2023-01-03T19:40:35.531Z,4.73
2023-01-03T19:43:04.604Z,6.80
2023-01-03T19:45:36.728Z,4.80
2023-01-03T19:48:14.179Z,5.27
2023-01-03T19:50:42.332Z,6.13
2023-01-03T19:53:12.459Z,8.60
2023-01-03T19:55:43.924Z,9.33
2023-01-03T19:58:18.010Z,7.60
2023-01-03T20:00:49.487Z,7.37
2023-01-03T20:03:27.440Z,9.60
2023-01-03T20:05:56.337Z,7.80
2023-01-03T20:08:24.777Z,9.03
2023-01-03T20:10:54.460Z,9.23
2023-01-03T20:13:24.402Z,7.30
2023-01-03T20:15:55.662Z,9.40
2023-01-03T20:18:28.579Z,8.87
2023-01-03T20:20:59.870Z,10.10
2023-01-03T20:23:32.807Z,9.90
2023-01-03T20:26:01.260Z,11.77
2023-01-03T20:28:30.946Z,12.10
2023-01-03T20:31:02.227Z,10.57
2023-01-03T20:33:30.533Z,11.10
2023-01-03T20:36:12.659Z,12.63
2023-01-03T20:38:45.816Z,11.10
2023-01-03T20:41:15.945Z,17.07
2023-01-03T20:43:45.538Z,17.83
2023-01-03T20:46:19.981Z,13.30
2023-01-03T20:48:55.619Z,13.23
2023-01-03T20:51:25.044Z,14.63
2023-01-03T20:53:54.969Z,16.23
2023-01-03T20:56:23.980Z,16.97
2023-01-03T20:58:52.167Z,19.23
2023-01-03T21:01:22.002Z,14.23
2023-01-03T21:03:50.574Z,15.10
2023-01-03T21:06:20.959Z,14.77
2023-01-03T21:08:55.714Z,13.50
2023-01-03T21:11:25.257Z,14.40
2023-01-03T21:13:53.841Z,13.30
2023-01-03T21:16:31.244Z,13.50
2023-01-03T21:19:05.031Z,13.67
2023-01-03T21:21:33.699Z,11.40
2023-01-03T21:24:02.407Z,10.97
2023-01-03T21:26:30.628Z,11.87
2023-01-03T21:28:59.032Z,10.83
2023-01-03T21:31:28.685Z,11.47
2023-01-03T21:33:56.884Z,10.77
2023-01-03T21:36:28.137Z,11.43
2023-01-03T21:38:57.294Z,12.17
2023-01-03T21:41:27.202Z,12.50
2023-01-03T21:43:56.717Z,11.33
2023-01-03T21:46:26.197Z,11.43
2023-01-03T21:48:56.609Z,11.37
2023-01-03T21:51:37.232Z,11.90
2023-01-03T21:54:07.926Z,11.80
2023-01-03T21:56:45.140Z,11.30
2023-01-03T21:59:14.625Z,10.53
2023-01-03T22:02:01.984Z,11.10
2023-01-03T22:04:32.429Z,11.00
2023-01-03T22:07:01.980Z,10.97
2023-01-03T22:09:48.835Z,10.50
2023-01-03T22:12:18.216Z,10.17
2023-01-03T22:14:46.569Z,10.80
2023-01-03T22:17:15.455Z,10.33
2023-01-03T22:19:45.145Z,10.60
2023-01-03T22:22:13.390Z,9.57
2023-01-03T22:24:41.585Z,10.07
2023-01-03T22:27:09.733Z,9.97
2023-01-03T22:29:37.924Z,10.90
2023-01-03T22:32:06.293Z,9.93
2023-01-03T22:34:34.579Z,10.37
2023-01-03T22:37:04.588Z,9.97
2023-01-03T22:39:32.746Z,9.77
2023-01-03T22:42:00.913Z,10.93
2023-01-03T22:44:29.430Z,9.47
2023-01-03T22:46:57.688Z,10.63
2023-01-03T22:49:25.894Z,10.17
2023-01-03T22:51:54.277Z,10.83
2023-01-03T22:54:23.868Z,9.70
2023-01-03T22:56:52.072Z,8.67
2023-01-03T22:59:20.240Z,9.33
2023-01-03T23:01:48.485Z,9.83
2023-01-03T23:04:19.210Z,9.93
2023-01-03T23:06:47.567Z,9.67
2023-01-03T23:09:16.181Z,9.90
2023-01-03T23:12:03.109Z,10.47
2023-01-03T23:14:32.447Z,10.80
2023-01-03T23:17:20.974Z,9.27
2023-01-03T23:19:49.226Z,9.50
2023-01-03T23:22:17.738Z,8.37
2023-01-03T23:24:46.757Z,8.40
2023-01-03T23:27:16.284Z,8.97
2023-01-03T23:29:44.461Z,8.57
2023-01-03T23:32:12.595Z,10.27
2023-01-03T23:34:40.746Z,9.77
2023-01-03T23:37:08.996Z,8.90
2023-01-03T23:39:37.184Z,8.43
2023-01-03T23:42:05.632Z,9.20
2023-01-03T23:44:35.407Z,7.63
2023-01-03T23:47:09.326Z,9.97
2023-01-03T23:49:39.773Z,9.50
2023-01-03T23:52:08.683Z,8.13
2023-01-03T23:54:36.825Z,8.40
2023-01-03T23:57:05.338Z,8.00
2023-01-03T23:59:34.871Z,7.50
